sensor_id;sensor_type;location;lat;lon;timestamp;P1;durP1;ratioP1;P2;durP2;ratioP2
46675;SDS011;32412;51.478;5.694;2023-06-19T00:01:59;5.30;;;4.75;;
46675;SDS011;32412;51.478;5.694;2023-06-19T00:04:24;5.90;;;4.90;;
46675;SDS011;32412;51.478;5.694;2023-06-19T00:06:51;8.13;;;5.38;;
46675;SDS011;32412;51.478;5.694;2023-06-19T00:09:17;5.63;;;4.38;;
46675;SDS011;32412;51.478;5.694;2023-06-19T00:11:43;7.35;;;4.75;;
46675;SDS011;32412;51.478;5.694;2023-06-19T00:14:09;6.47;;;4.63;;
46675;SDS011;32412;51.478;5.694;2023-06-19T00:16:35;7.07;;;4.68;;
46675;SDS011;32412;51.478;5.694;2023-06-19T00:19:01;5.30;;;4.78;;
46675;SDS011;32412;51.478;5.694;2023-06-19T00:21:28;7.15;;;4.95;;
46675;SDS011;32412;51.478;5.694;2023-06-19T00:23:54;6.43;;;4.97;;
46675;SDS011;32412;51.478;5.694;2023-06-19T00:26:21;7.68;;;4.97;;
46675;SDS011;32412;51.478;5.694;2023-06-19T00:28:50;5.38;;;4.88;;
46675;SDS011;32412;51.478;5.694;2023-06-19T00:31:16;6.22;;;4.65;;
46675;SDS011;32412;51.478;5.694;2023-06-19T00:33:46;6.18;;;4.75;;
46675;SDS011;32412;51.478;5.694;2023-06-19T00:36:15;5.93;;;4.90;;
46675;SDS011;32412;51.478;5.694;2023-06-19T00:38:45;7.13;;;4.93;;
46675;SDS011;32412;51.478;5.694;2023-06-19T00:41:11;6.15;;;5.10;;
46675;SDS011;32412;51.478;5.694;2023-06-19T00:43:37;7.47;;;5.07;;
46675;SDS011;32412;51.478;5.694;2023-06-19T00:46:05;8.43;;;5.05;;
46675;SDS011;32412;51.478;5.694;2023-06-19T00:48:31;5.57;;;4.65;;
46675;SDS011;32412;51.478;5.694;2023-06-19T00:50:59;7.45;;;4.75;;
46675;SDS011;32412;51.478;5.694;2023-06-19T00:53:25;6.93;;;5.43;;
46675;SDS011;32412;51.478;5.694;2023-06-19T00:55:51;5.97;;;5.20;;
46675;SDS011;32412;51.478;5.694;2023-06-19T00:58:22;7.45;;;5.43;;
46675;SDS011;32412;51.478;5.694;2023-06-19T01:00:48;7.38;;;5.55;;
46675;SDS011;32412;51.478;5.694;2023-06-19T01:03:14;10.93;;;5.32;;
46675;SDS011;32412;51.478;5.694;2023-06-19T01:05:40;6.45;;;5.22;;
46675;SDS011;32412;51.478;5.694;2023-06-19T01:08:32;6.40;;;4.95;;
46675;SDS011;32412;51.478;5.694;2023-06-19T01:11:05;5.85;;;5.07;;
46675;SDS011;32412;51.478;5.694;2023-06-19T01:13:43;6.13;;;5.03;;
46675;SDS011;32412;51.478;5.694;2023-06-19T01:16:12;9.18;;;5.20;;
46675;SDS011;32412;51.478;5.694;2023-06-19T01:18:39;6.22;;;4.63;;
46675;SDS011;32412;51.478;5.694;2023-06-19T01:21:09;7.60;;;4.65;;
46675;SDS011;32412;51.478;5.694;2023-06-19T01:23:40;6.38;;;4.28;;
46675;SDS011;32412;51.478;5.694;2023-06-19T01:26:09;5.97;;;4.50;;
46675;SDS011;32412;51.478;5.694;2023-06-19T01:28:36;6.00;;;4.15;;
46675;SDS011;32412;51.478;5.694;2023-06-19T01:31:06;4.78;;;4.10;;
46675;SDS011;32412;51.478;5.694;2023-06-19T01:33:43;5.03;;;4.15;;
46675;SDS011;32412;51.478;5.694;2023-06-19T01:36:11;4.50;;;4.05;;
46675;SDS011;32412;51.478;5.694;2023-06-19T01:38:37;5.90;;;3.83;;
46675;SDS011;32412;51.478;5.694;2023-06-19T01:41:04;5.47;;;4.10;;
46675;SDS011;32412;51.478;5.694;2023-06-19T01:43:31;5.78;;;4.20;;
46675;SDS011;32412;51.478;5.694;2023-06-19T01:46:01;4.55;;;3.90;;
46675;SDS011;32412;51.478;5.694;2023-06-19T01:48:27;5.75;;;4.18;;
46675;SDS011;32412;51.478;5.694;2023-06-19T01:50:52;5.35;;;3.70;;
46675;SDS011;32412;51.478;5.694;2023-06-19T01:53:18;4.85;;;4.10;;
46675;SDS011;32412;51.478;5.694;2023-06-19T01:55:44;4.18;;;3.75;;
46675;SDS011;32412;51.478;5.694;2023-06-19T01:58:09;6.68;;;3.90;;
46675;SDS011;32412;51.478;5.694;2023-06-19T02:00:35;4.72;;;4.10;;
46675;SDS011;32412;51.478;5.694;2023-06-19T02:03:02;5.38;;;4.07;;
46675;SDS011;32412;51.478;5.694;2023-06-19T02:05:31;6.07;;;4.20;;
46675;SDS011;32412;51.478;5.694;2023-06-19T02:07:57;6.53;;;4.10;;
46675;SDS011;32412;51.478;5.694;2023-06-19T02:10:23;6.35;;;4.15;;
46675;SDS011;32412;51.478;5.694;2023-06-19T02:12:48;5.82;;;3.70;;
46675;SDS011;32412;51.478;5.694;2023-06-19T02:15:14;5.47;;;4.00;;
46675;SDS011;32412;51.478;5.694;2023-06-19T02:17:40;5.25;;;3.92;;
46675;SDS011;32412;51.478;5.694;2023-06-19T02:20:07;7.90;;;4.05;;
46675;SDS011;32412;51.478;5.694;2023-06-19T02:22:37;5.80;;;4.03;;
46675;SDS011;32412;51.478;5.694;2023-06-19T02:25:03;3.78;;;3.30;;
46675;SDS011;32412;51.478;5.694;2023-06-19T02:27:30;5.20;;;3.67;;
46675;SDS011;32412;51.478;5.694;2023-06-19T02:29:55;7.05;;;3.90;;
46675;SDS011;32412;51.478;5.694;2023-06-19T02:32:21;4.25;;;3.50;;
46675;SDS011;32412;51.478;5.694;2023-06-19T02:34:46;4.85;;;3.47;;
46675;SDS011;32412;51.478;5.694;2023-06-19T02:37:12;5.00;;;3.70;;
46675;SDS011;32412;51.478;5.694;2023-06-19T02:39:38;4.28;;;3.42;;
46675;SDS011;32412;51.478;5.694;2023-06-19T02:42:03;4.78;;;3.35;;
46675;SDS011;32412;51.478;5.694;2023-06-19T02:44:29;4.65;;;3.33;;
46675;SDS011;32412;51.478;5.694;2023-06-19T02:46:55;3.55;;;3.20;;
46675;SDS011;32412;51.478;5.694;2023-06-19T02:49:20;5.45;;;3.63;;
46675;SDS011;32412;51.478;5.694;2023-06-19T02:51:46;3.97;;;3.00;;
46675;SDS011;32412;51.478;5.694;2023-06-19T02:54:12;3.67;;;2.97;;
46675;SDS011;32412;51.478;5.694;2023-06-19T02:56:37;3.40;;;2.97;;
46675;SDS011;32412;51.478;5.694;2023-06-19T02:59:03;7.22;;;3.60;;
46675;SDS011;32412;51.478;5.694;2023-06-19T03:01:29;3.92;;;3.17;;
46675;SDS011;32412;51.478;5.694;2023-06-19T03:03:55;5.30;;;3.10;;
46675;SDS011;32412;51.478;5.694;2023-06-19T03:06:21;3.45;;;2.80;;
46675;SDS011;32412;51.478;5.694;2023-06-19T03:08:47;5.07;;;3.30;;
46675;SDS011;32412;51.478;5.694;2023-06-19T03:11:12;5.65;;;3.10;;
46675;SDS011;32412;51.478;5.694;2023-06-19T03:13:50;3.55;;;3.22;;
46675;SDS011;32412;51.478;5.694;2023-06-19T03:16:17;4.63;;;3.60;;
46675;SDS011;32412;51.478;5.694;2023-06-19T03:18:43;4.53;;;3.45;;
46675;SDS011;32412;51.478;5.694;2023-06-19T03:21:17;3.92;;;3.47;;
46675;SDS011;32412;51.478;5.694;2023-06-19T03:23:44;5.85;;;3.55;;
46675;SDS011;32412;51.478;5.694;2023-06-19T03:26:10;4.05;;;3.30;;
46675;SDS011;32412;51.478;5.694;2023-06-19T03:28:36;4.28;;;3.50;;
46675;SDS011;32412;51.478;5.694;2023-06-19T03:31:02;4.07;;;3.58;;
46675;SDS011;32412;51.478;5.694;2023-06-19T03:33:28;4.38;;;3.60;;
46675;SDS011;32412;51.478;5.694;2023-06-19T03:35:53;5.88;;;3.55;;
46675;SDS011;32412;51.478;5.694;2023-06-19T03:38:19;4.50;;;3.00;;
46675;SDS011;32412;51.478;5.694;2023-06-19T03:40:45;4.82;;;3.53;;
46675;SDS011;32412;51.478;5.694;2023-06-19T03:43:11;4.53;;;3.67;;
46675;SDS011;32412;51.478;5.694;2023-06-19T03:45:36;3.33;;;3.03;;
46675;SDS011;32412;51.478;5.694;2023-06-19T03:48:02;4.85;;;3.17;;
46675;SDS011;32412;51.478;5.694;2023-06-19T03:50:28;5.13;;;3.30;;
46675;SDS011;32412;51.478;5.694;2023-06-19T03:52:54;5.40;;;3.63;;
46675;SDS011;32412;51.478;5.694;2023-06-19T03:55:19;5.55;;;3.92;;
46675;SDS011;32412;51.478;5.694;2023-06-19T03:57:45;3.90;;;3.30;;
46675;SDS011;32412;51.478;5.694;2023-06-19T04:00:11;4.80;;;3.80;;
46675;SDS011;32412;51.478;5.694;2023-06-19T04:02:38;6.65;;;4.03;;
46675;SDS011;32412;51.478;5.694;2023-06-19T04:05:05;4.93;;;3.40;;
46675;SDS011;32412;51.478;5.694;2023-06-19T04:07:31;7.38;;;3.95;;
46675;SDS011;32412;51.478;5.694;2023-06-19T04:09:57;4.45;;;3.65;;
46675;SDS011;32412;51.478;5.694;2023-06-19T04:12:23;5.78;;;3.70;;
46675;SDS011;32412;51.478;5.694;2023-06-19T04:14:49;4.32;;;3.63;;
46675;SDS011;32412;51.478;5.694;2023-06-19T04:17:15;4.57;;;4.00;;
46675;SDS011;32412;51.478;5.694;2023-06-19T04:19:40;4.93;;;3.53;;
46675;SDS011;32412;51.478;5.694;2023-06-19T04:22:06;7.53;;;3.85;;
46675;SDS011;32412;51.478;5.694;2023-06-19T04:24:32;5.18;;;4.00;;
46675;SDS011;32412;51.478;5.694;2023-06-19T04:26:58;4.57;;;3.75;;
46675;SDS011;32412;51.478;5.694;2023-06-19T04:29:24;5.00;;;3.55;;
46675;SDS011;32412;51.478;5.694;2023-06-19T04:31:49;3.83;;;3.40;;
46675;SDS011;32412;51.478;5.694;2023-06-19T04:34:16;4.72;;;3.78;;
46675;SDS011;32412;51.478;5.694;2023-06-19T04:36:46;6.70;;;3.63;;
46675;SDS011;32412;51.478;5.694;2023-06-19T04:39:12;5.25;;;3.42;;
46675;SDS011;32412;51.478;5.694;2023-06-19T04:41:38;4.95;;;3.42;;
46675;SDS011;32412;51.478;5.694;2023-06-19T04:44:04;7.93;;;3.40;;
46675;SDS011;32412;51.478;5.694;2023-06-19T04:46:31;4.28;;;3.60;;
46675;SDS011;32412;51.478;5.694;2023-06-19T04:48:56;5.35;;;3.50;;
46675;SDS011;32412;51.478;5.694;2023-06-19T04:51:22;4.35;;;3.53;;
46675;SDS011;32412;51.478;5.694;2023-06-19T04:53:48;4.53;;;3.80;;
46675;SDS011;32412;51.478;5.694;2023-06-19T04:56:14;4.65;;;3.90;;
46675;SDS011;32412;51.478;5.694;2023-06-19T04:58:40;6.05;;;3.80;;
46675;SDS011;32412;51.478;5.694;2023-06-19T05:01:14;4.68;;;3.38;;
46675;SDS011;32412;51.478;5.694;2023-06-19T05:03:40;4.00;;;3.60;;
46675;SDS011;32412;51.478;5.694;2023-06-19T05:06:07;4.82;;;4.18;;
46675;SDS011;32412;51.478;5.694;2023-06-19T05:08:33;4.68;;;3.83;;
46675;SDS011;32412;51.478;5.694;2023-06-19T05:10:59;6.10;;;3.90;;
46675;SDS011;32412;51.478;5.694;2023-06-19T05:13:25;4.30;;;3.90;;
46675;SDS011;32412;51.478;5.694;2023-06-19T05:15:51;7.60;;;4.05;;
46675;SDS011;32412;51.478;5.694;2023-06-19T05:18:16;4.70;;;3.95;;
46675;SDS011;32412;51.478;5.694;2023-06-19T05:20:43;4.55;;;4.10;;
46675;SDS011;32412;51.478;5.694;2023-06-19T05:23:09;6.78;;;4.40;;
46675;SDS011;32412;51.478;5.694;2023-06-19T05:25:35;5.53;;;4.05;;
46675;SDS011;32412;51.478;5.694;2023-06-19T05:28:00;5.13;;;3.45;;
46675;SDS011;32412;51.478;5.694;2023-06-19T05:30:26;4.60;;;4.05;;
46675;SDS011;32412;51.478;5.694;2023-06-19T05:32:52;4.95;;;4.03;;
46675;SDS011;32412;51.478;5.694;2023-06-19T05:35:18;11.05;;;4.18;;
46675;SDS011;32412;51.478;5.694;2023-06-19T05:37:43;6.13;;;3.63;;
46675;SDS011;32412;51.478;5.694;2023-06-19T05:40:10;5.90;;;3.85;;
46675;SDS011;32412;51.478;5.694;2023-06-19T05:42:36;4.40;;;3.58;;
46675;SDS011;32412;51.478;5.694;2023-06-19T05:45:02;5.93;;;3.88;;
46675;SDS011;32412;51.478;5.694;2023-06-19T05:47:29;5.40;;;3.83;;
46675;SDS011;32412;51.478;5.694;2023-06-19T05:49:56;6.07;;;4.53;;
46675;SDS011;32412;51.478;5.694;2023-06-19T05:52:22;6.00;;;3.80;;
46675;SDS011;32412;51.478;5.694;2023-06-19T05:54:48;7.60;;;4.28;;
46675;SDS011;32412;51.478;5.694;2023-06-19T05:57:14;5.95;;;4.20;;
46675;SDS011;32412;51.478;5.694;2023-06-19T05:59:41;8.32;;;3.97;;
46675;SDS011;32412;51.478;5.694;2023-06-19T06:02:07;5.00;;;4.18;;
46675;SDS011;32412;51.478;5.694;2023-06-19T06:04:33;7.70;;;4.57;;
46675;SDS011;32412;51.478;5.694;2023-06-19T06:07:03;8.18;;;4.45;;
46675;SDS011;32412;51.478;5.694;2023-06-19T06:09:29;6.18;;;4.60;;
46675;SDS011;32412;51.478;5.694;2023-06-19T06:11:54;7.00;;;4.43;;
46675;SDS011;32412;51.478;5.694;2023-06-19T06:14:20;6.85;;;4.38;;
46675;SDS011;32412;51.478;5.694;2023-06-19T06:16:46;7.75;;;4.53;;
46675;SDS011;32412;51.478;5.694;2023-06-19T06:19:11;5.70;;;4.05;;
46675;SDS011;32412;51.478;5.694;2023-06-19T06:21:37;7.90;;;4.43;;
46675;SDS011;32412;51.478;5.694;2023-06-19T06:24:03;4.97;;;4.45;;
46675;SDS011;32412;51.478;5.694;2023-06-19T06:26:29;8.60;;;4.20;;
46675;SDS011;32412;51.478;5.694;2023-06-19T06:28:55;4.93;;;3.83;;
46675;SDS011;32412;51.478;5.694;2023-06-19T06:31:22;5.38;;;4.18;;
46675;SDS011;32412;51.478;5.694;2023-06-19T06:33:48;6.22;;;3.95;;
46675;SDS011;32412;51.478;5.694;2023-06-19T06:36:17;7.43;;;4.75;;
46675;SDS011;32412;51.478;5.694;2023-06-19T06:38:43;4.88;;;3.65;;
46675;SDS011;32412;51.478;5.694;2023-06-19T06:41:09;4.57;;;3.83;;
46675;SDS011;32412;51.478;5.694;2023-06-19T06:43:34;5.45;;;3.38;;
46675;SDS011;32412;51.478;5.694;2023-06-19T06:46:00;4.45;;;3.60;;
46675;SDS011;32412;51.478;5.694;2023-06-19T06:48:26;5.55;;;3.33;;
46675;SDS011;32412;51.478;5.694;2023-06-19T06:50:51;5.32;;;3.40;;
46675;SDS011;32412;51.478;5.694;2023-06-19T06:53:24;6.13;;;3.53;;
46675;SDS011;32412;51.478;5.694;2023-06-19T06:55:50;7.53;;;3.83;;
46675;SDS011;32412;51.478;5.694;2023-06-19T06:58:17;8.60;;;3.38;;
46675;SDS011;32412;51.478;5.694;2023-06-19T07:00:43;4.40;;;3.53;;
46675;SDS011;32412;51.478;5.694;2023-06-19T07:03:09;4.20;;;3.80;;
46675;SDS011;32412;51.478;5.694;2023-06-19T07:05:35;9.38;;;4.03;;
46675;SDS011;32412;51.478;5.694;2023-06-19T07:08:01;6.30;;;4.75;;
46675;SDS011;32412;51.478;5.694;2023-06-19T07:10:28;5.43;;;4.30;;
46675;SDS011;32412;51.478;5.694;2023-06-19T07:12:54;7.28;;;4.43;;
46675;SDS011;32412;51.478;5.694;2023-06-19T07:15:20;4.72;;;4.10;;
46675;SDS011;32412;51.478;5.694;2023-06-19T07:17:46;6.28;;;4.22;;
46675;SDS011;32412;51.478;5.694;2023-06-19T07:20:12;4.32;;;3.92;;
46675;SDS011;32412;51.478;5.694;2023-06-19T07:22:38;5.63;;;4.13;;
46675;SDS011;32412;51.478;5.694;2023-06-19T07:25:04;7.60;;;5.07;;
46675;SDS011;32412;51.478;5.694;2023-06-19T07:27:30;4.28;;;3.88;;
46675;SDS011;32412;51.478;5.694;2023-06-19T07:29:56;5.50;;;4.50;;
46675;SDS011;32412;51.478;5.694;2023-06-19T07:32:22;4.90;;;4.40;;
46675;SDS011;32412;51.478;5.694;2023-06-19T07:34:48;6.50;;;5.20;;
46675;SDS011;32412;51.478;5.694;2023-06-19T07:37:14;8.45;;;5.63;;
46675;SDS011;32412;51.478;5.694;2023-06-19T07:39:51;6.43;;;5.25;;
46675;SDS011;32412;51.478;5.694;2023-06-19T07:42:18;6.18;;;5.35;;
46675;SDS011;32412;51.478;5.694;2023-06-19T07:44:44;6.13;;;5.53;;
46675;SDS011;32412;51.478;5.694;2023-06-19T07:47:10;7.03;;;6.03;;
46675;SDS011;32412;51.478;5.694;2023-06-19T07:49:37;6.50;;;5.65;;
46675;SDS011;32412;51.478;5.694;2023-06-19T07:52:03;7.03;;;5.50;;
46675;SDS011;32412;51.478;5.694;2023-06-19T07:54:29;7.07;;;5.60;;
46675;SDS011;32412;51.478;5.694;2023-06-19T07:56:55;6.55;;;5.38;;
46675;SDS011;32412;51.478;5.694;2023-06-19T07:59:21;7.20;;;6.18;;
46675;SDS011;32412;51.478;5.694;2023-06-19T08:01:47;9.00;;;5.60;;
46675;SDS011;32412;51.478;5.694;2023-06-19T08:04:14;7.50;;;5.82;;
46675;SDS011;32412;51.478;5.694;2023-06-19T08:06:39;8.20;;;6.65;;
46675;SDS011;32412;51.478;5.694;2023-06-19T08:09:05;8.80;;;6.03;;
46675;SDS011;32412;51.478;5.694;2023-06-19T08:11:31;8.80;;;5.70;;
46675;SDS011;32412;51.478;5.694;2023-06-19T08:14:00;7.68;;;5.28;;
46675;SDS011;32412;51.478;5.694;2023-06-19T08:16:25;7.38;;;5.80;;
46675;SDS011;32412;51.478;5.694;2023-06-19T08:18:51;8.40;;;6.15;;
46675;SDS011;32412;51.478;5.694;2023-06-19T08:21:17;6.43;;;5.75;;
46675;SDS011;32412;51.478;5.694;2023-06-19T08:23:43;7.32;;;5.65;;
46675;SDS011;32412;51.478;5.694;2023-06-19T08:26:09;6.28;;;5.68;;
46675;SDS011;32412;51.478;5.694;2023-06-19T08:28:36;6.65;;;5.72;;
46675;SDS011;32412;51.478;5.694;2023-06-19T08:31:02;7.32;;;5.55;;
46675;SDS011;32412;51.478;5.694;2023-06-19T08:33:28;7.47;;;4.93;;
46675;SDS011;32412;51.478;5.694;2023-06-19T08:35:54;6.88;;;5.30;;
46675;SDS011;32412;51.478;5.694;2023-06-19T08:38:19;6.10;;;5.22;;
46675;SDS011;32412;51.478;5.694;2023-06-19T08:40:45;7.93;;;5.45;;
46675;SDS011;32412;51.478;5.694;2023-06-19T08:43:11;6.78;;;5.22;;
46675;SDS011;32412;51.478;5.694;2023-06-19T08:45:37;7.18;;;5.18;;
46675;SDS011;32412;51.478;5.694;2023-06-19T08:48:03;7.82;;;5.97;;
46675;SDS011;32412;51.478;5.694;2023-06-19T08:50:30;6.35;;;4.75;;
46675;SDS011;32412;51.478;5.694;2023-06-19T08:52:56;11.13;;;5.32;;
46675;SDS011;32412;51.478;5.694;2023-06-19T08:55:22;6.80;;;4.85;;
46675;SDS011;32412;51.478;5.694;2023-06-19T08:57:49;7.68;;;5.05;;
46675;SDS011;32412;51.478;5.694;2023-06-19T09:00:26;7.55;;;5.10;;
46675;SDS011;32412;51.478;5.694;2023-06-19T09:02:58;6.90;;;5.43;;
46675;SDS011;32412;51.478;5.694;2023-06-19T09:05:26;6.47;;;4.95;;
46675;SDS011;32412;51.478;5.694;2023-06-19T09:07:56;18.70;;;10.50;;
46675;SDS011;32412;51.478;5.694;2023-06-19T09:10:25;6.38;;;5.20;;
46675;SDS011;32412;51.478;5.694;2023-06-19T09:13:04;6.70;;;4.90;;
46675;SDS011;32412;51.478;5.694;2023-06-19T09:15:31;10.77;;;4.70;;
46675;SDS011;32412;51.478;5.694;2023-06-19T09:18:00;4.90;;;4.43;;
46675;SDS011;32412;51.478;5.694;2023-06-19T09:20:26;5.80;;;4.53;;
46675;SDS011;32412;51.478;5.694;2023-06-19T09:22:56;5.45;;;4.72;;
46675;SDS011;32412;51.478;5.694;2023-06-19T09:25:22;8.05;;;4.95;;
46675;SDS011;32412;51.478;5.694;2023-06-19T09:27:50;6.45;;;5.03;;
46675;SDS011;32412;51.478;5.694;2023-06-19T09:30:15;7.38;;;4.70;;
46675;SDS011;32412;51.478;5.694;2023-06-19T09:32:41;6.15;;;5.03;;
46675;SDS011;32412;51.478;5.694;2023-06-19T09:35:07;7.43;;;5.00;;
46675;SDS011;32412;51.478;5.694;2023-06-19T09:37:33;5.78;;;4.95;;
46675;SDS011;32412;51.478;5.694;2023-06-19T09:40:00;6.90;;;5.28;;
46675;SDS011;32412;51.478;5.694;2023-06-19T09:42:36;7.40;;;5.70;;
46675;SDS011;32412;51.478;5.694;2023-06-19T09:47:31;9.05;;;5.18;;
46675;SDS011;32412;51.478;5.694;2023-06-19T09:50:02;6.75;;;5.40;;
46675;SDS011;32412;51.478;5.694;2023-06-19T09:52:29;8.98;;;5.75;;
46675;SDS011;32412;51.478;5.694;2023-06-19T09:54:55;6.90;;;5.50;;
46675;SDS011;32412;51.478;5.694;2023-06-19T09:57:22;6.13;;;5.47;;
46675;SDS011;32412;51.478;5.694;2023-06-19T09:59:55;6.90;;;5.38;;
46675;SDS011;32412;51.478;5.694;2023-06-19T10:02:22;5.80;;;5.20;;
46675;SDS011;32412;51.478;5.694;2023-06-19T10:04:51;8.23;;;6.55;;
46675;SDS011;32412;51.478;5.694;2023-06-19T10:10:08;8.82;;;4.97;;
46675;SDS011;32412;51.478;5.694;2023-06-19T10:12:44;5.97;;;5.05;;
46675;SDS011;32412;51.478;5.694;2023-06-19T10:15:12;6.80;;;5.33;;
46675;SDS011;32412;51.478;5.694;2023-06-19T10:17:52;8.15;;;5.50;;
46675;SDS011;32412;51.478;5.694;2023-06-19T10:20:27;7.80;;;5.60;;
46675;SDS011;32412;51.478;5.694;2023-06-19T10:25:24;7.55;;;5.60;;
46675;SDS011;32412;51.478;5.694;2023-06-19T10:27:52;6.82;;;5.40;;
46675;SDS011;32412;51.478;5.694;2023-06-19T10:30:19;9.15;;;6.55;;
46675;SDS011;32412;51.478;5.694;2023-06-19T10:32:48;10.30;;;6.40;;
46675;SDS011;32412;51.478;5.694;2023-06-19T10:35:15;8.18;;;5.85;;
46675;SDS011;32412;51.478;5.694;2023-06-19T10:37:42;6.13;;;5.53;;
46675;SDS011;32412;51.478;5.694;2023-06-19T10:40:09;7.63;;;6.38;;
46675;SDS011;32412;51.478;5.694;2023-06-19T10:42:42;8.88;;;5.53;;
46675;SDS011;32412;51.478;5.694;2023-06-19T10:45:09;7.05;;;6.05;;
46675;SDS011;32412;51.478;5.694;2023-06-19T10:47:43;9.15;;;5.82;;
46675;SDS011;32412;51.478;5.694;2023-06-19T10:50:10;9.55;;;6.45;;
46675;SDS011;32412;51.478;5.694;2023-06-19T10:52:39;8.43;;;6.18;;
46675;SDS011;32412;51.478;5.694;2023-06-19T10:55:08;7.20;;;6.15;;
46675;SDS011;32412;51.478;5.694;2023-06-19T10:57:35;9.18;;;7.07;;
46675;SDS011;32412;51.478;5.694;2023-06-19T11:00:01;7.43;;;6.55;;
46675;SDS011;32412;51.478;5.694;2023-06-19T11:05:05;8.95;;;6.75;;
46675;SDS011;32412;51.478;5.694;2023-06-19T11:07:31;10.43;;;6.32;;
46675;SDS011;32412;51.478;5.694;2023-06-19T11:09:57;7.70;;;6.70;;
46675;SDS011;32412;51.478;5.694;2023-06-19T11:12:23;7.55;;;6.10;;
46675;SDS011;32412;51.478;5.694;2023-06-19T11:14:49;7.68;;;6.25;;
46675;SDS011;32412;51.478;5.694;2023-06-19T11:17:15;7.90;;;6.55;;
46675;SDS011;32412;51.478;5.694;2023-06-19T11:19:46;7.72;;;6.55;;
46675;SDS011;32412;51.478;5.694;2023-06-19T11:22:12;7.78;;;6.00;;
46675;SDS011;32412;51.478;5.694;2023-06-19T11:24:56;8.40;;;6.07;;
46675;SDS011;32412;51.478;5.694;2023-06-19T11:27:27;9.40;;;6.68;;
46675;SDS011;32412;51.478;5.694;2023-06-19T11:29:56;6.63;;;6.03;;
46675;SDS011;32412;51.478;5.694;2023-06-19T11:32:23;7.95;;;6.15;;
46675;SDS011;32412;51.478;5.694;2023-06-19T11:34:56;11.93;;;6.07;;
46675;SDS011;32412;51.478;5.694;2023-06-19T11:37:22;6.43;;;5.75;;
46675;SDS011;32412;51.478;5.694;2023-06-19T11:39:48;11.60;;;6.43;;
46675;SDS011;32412;51.478;5.694;2023-06-19T11:42:15;8.32;;;6.55;;
46675;SDS011;32412;51.478;5.694;2023-06-19T11:47:19;7.45;;;5.75;;
46675;SDS011;32412;51.478;5.694;2023-06-19T11:49:47;7.07;;;6.03;;
46675;SDS011;32412;51.478;5.694;2023-06-19T11:52:14;6.82;;;6.13;;
46675;SDS011;32412;51.478;5.694;2023-06-19T11:54:39;10.77;;;5.93;;
46675;SDS011;32412;51.478;5.694;2023-06-19T11:57:05;9.63;;;6.43;;
46675;SDS011;32412;51.478;5.694;2023-06-19T11:59:31;8.80;;;6.15;;
46675;SDS011;32412;51.478;5.694;2023-06-19T12:01:57;8.38;;;6.53;;
46675;SDS011;32412;51.478;5.694;2023-06-19T12:04:24;7.05;;;6.38;;
46675;SDS011;32412;51.478;5.694;2023-06-19T12:06:51;7.05;;;5.68;;
46675;SDS011;32412;51.478;5.694;2023-06-19T12:09:17;8.38;;;6.22;;
46675;SDS011;32412;51.478;5.694;2023-06-19T12:11:43;8.05;;;5.80;;
46675;SDS011;32412;51.478;5.694;2023-06-19T12:14:09;7.75;;;6.03;;
46675;SDS011;32412;51.478;5.694;2023-06-19T12:16:35;6.72;;;6.00;;
46675;SDS011;32412;51.478;5.694;2023-06-19T12:19:00;9.25;;;6.10;;
46675;SDS011;32412;51.478;5.694;2023-06-19T12:21:26;9.52;;;6.20;;
46675;SDS011;32412;51.478;5.694;2023-06-19T12:23:52;10.65;;;6.05;;
46675;SDS011;32412;51.478;5.694;2023-06-19T12:26:17;7.13;;;6.05;;
46675;SDS011;32412;51.478;5.694;2023-06-19T12:28:44;6.47;;;5.88;;
46675;SDS011;32412;51.478;5.694;2023-06-19T12:31:09;8.68;;;6.15;;
46675;SDS011;32412;51.478;5.694;2023-06-19T12:33:35;6.57;;;5.88;;
46675;SDS011;32412;51.478;5.694;2023-06-19T12:36:02;7.45;;;6.07;;
46675;SDS011;32412;51.478;5.694;2023-06-19T12:38:27;7.25;;;5.68;;
46675;SDS011;32412;51.478;5.694;2023-06-19T12:40:53;9.32;;;6.63;;
46675;SDS011;32412;51.478;5.694;2023-06-19T12:43:19;7.40;;;6.32;;
46675;SDS011;32412;51.478;5.694;2023-06-19T12:45:45;6.28;;;5.60;;
46675;SDS011;32412;51.478;5.694;2023-06-19T12:48:11;6.78;;;6.07;;
46675;SDS011;32412;51.478;5.694;2023-06-19T12:50:37;6.22;;;5.63;;
46675;SDS011;32412;51.478;5.694;2023-06-19T12:53:02;7.47;;;6.63;;
46675;SDS011;32412;51.478;5.694;2023-06-19T12:55:31;7.85;;;6.28;;
46675;SDS011;32412;51.478;5.694;2023-06-19T12:57:57;6.80;;;5.70;;
46675;SDS011;32412;51.478;5.694;2023-06-19T13:00:23;7.43;;;6.22;;
46675;SDS011;32412;51.478;5.694;2023-06-19T13:02:48;8.05;;;6.40;;
46675;SDS011;32412;51.478;5.694;2023-06-19T13:05:14;9.68;;;5.93;;
46675;SDS011;32412;51.478;5.694;2023-06-19T13:07:40;8.38;;;5.82;;
46675;SDS011;32412;51.478;5.694;2023-06-19T13:10:09;8.32;;;6.60;;
46675;SDS011;32412;51.478;5.694;2023-06-19T13:12:35;7.47;;;6.10;;
46675;SDS011;32412;51.478;5.694;2023-06-19T13:15:00;6.72;;;6.00;;
46675;SDS011;32412;51.478;5.694;2023-06-19T13:17:26;6.20;;;5.70;;
46675;SDS011;32412;51.478;5.694;2023-06-19T13:19:52;7.40;;;5.47;;
46675;SDS011;32412;51.478;5.694;2023-06-19T13:22:18;7.65;;;5.60;;
46675;SDS011;32412;51.478;5.694;2023-06-19T13:24:43;6.40;;;5.80;;
46675;SDS011;32412;51.478;5.694;2023-06-19T13:27:09;10.07;;;6.20;;
46675;SDS011;32412;51.478;5.694;2023-06-19T13:29:35;6.25;;;5.43;;
46675;SDS011;32412;51.478;5.694;2023-06-19T13:32:01;9.48;;;5.88;;
46675;SDS011;32412;51.478;5.694;2023-06-19T13:34:27;7.72;;;6.05;;
46675;SDS011;32412;51.478;5.694;2023-06-19T13:36:52;7.20;;;5.63;;
46675;SDS011;32412;51.478;5.694;2023-06-19T13:39:18;7.10;;;5.72;;
46675;SDS011;32412;51.478;5.694;2023-06-19T13:41:45;9.40;;;6.22;;
46675;SDS011;32412;51.478;5.694;2023-06-19T13:44:11;9.98;;;6.80;;
46675;SDS011;32412;51.478;5.694;2023-06-19T13:46:37;9.07;;;6.25;;
46675;SDS011;32412;51.478;5.694;2023-06-19T13:49:03;8.88;;;6.07;;
46675;SDS011;32412;51.478;5.694;2023-06-19T13:51:29;10.77;;;6.03;;
46675;SDS011;32412;51.478;5.694;2023-06-19T13:53:58;9.45;;;6.07;;
46675;SDS011;32412;51.478;5.694;2023-06-19T13:56:23;8.23;;;5.63;;
46675;SDS011;32412;51.478;5.694;2023-06-19T13:58:49;8.90;;;5.57;;
46675;SDS011;32412;51.478;5.694;2023-06-19T14:01:15;8.70;;;6.10;;
46675;SDS011;32412;51.478;5.694;2023-06-19T14:03:41;8.43;;;6.20;;
46675;SDS011;32412;51.478;5.694;2023-06-19T14:06:07;9.02;;;5.57;;
46675;SDS011;32412;51.478;5.694;2023-06-19T14:08:33;6.43;;;5.25;;
46675;SDS011;32412;51.478;5.694;2023-06-19T14:10:59;8.02;;;5.78;;
46675;SDS011;32412;51.478;5.694;2023-06-19T14:13:25;8.80;;;5.60;;
46675;SDS011;32412;51.478;5.694;2023-06-19T14:15:50;6.60;;;5.22;;
46675;SDS011;32412;51.478;5.694;2023-06-19T14:18:17;8.52;;;5.80;;
46675;SDS011;32412;51.478;5.694;2023-06-19T14:20:43;6.90;;;5.70;;
46675;SDS011;32412;51.478;5.694;2023-06-19T14:23:09;9.43;;;5.72;;
46675;SDS011;32412;51.478;5.694;2023-06-19T14:25:34;6.88;;;5.35;;
46675;SDS011;32412;51.478;5.694;2023-06-19T14:28:00;6.53;;;5.85;;
46675;SDS011;32412;51.478;5.694;2023-06-19T14:30:26;7.82;;;6.10;;
46675;SDS011;32412;51.478;5.694;2023-06-19T14:32:52;7.53;;;5.43;;
46675;SDS011;32412;51.478;5.694;2023-06-19T14:35:17;9.32;;;6.25;;
46675;SDS011;32412;51.478;5.694;2023-06-19T14:37:43;7.60;;;5.88;;
46675;SDS011;32412;51.478;5.694;2023-06-19T14:40:09;7.15;;;5.35;;
46675;SDS011;32412;51.478;5.694;2023-06-19T14:42:35;9.60;;;5.65;;
46675;SDS011;32412;51.478;5.694;2023-06-19T14:45:01;5.75;;;5.15;;
46675;SDS011;32412;51.478;5.694;2023-06-19T14:47:27;9.32;;;5.55;;
46675;SDS011;32412;51.478;5.694;2023-06-19T14:49:53;7.65;;;5.53;;
46675;SDS011;32412;51.478;5.694;2023-06-19T14:52:19;9.23;;;5.47;;
46675;SDS011;32412;51.478;5.694;2023-06-19T14:54:48;6.22;;;4.55;;
46675;SDS011;32412;51.478;5.694;2023-06-19T14:57:14;5.88;;;5.18;;
46675;SDS011;32412;51.478;5.694;2023-06-19T14:59:39;6.43;;;4.95;;